Time;durP1;ratioP1;P1;durP2;ratioP2;P2;SDS_P1;SDS_P2;PMS_P1;PMS_P2;Temp;Humidity;BMP_temperature;BMP_pressure;BME280_temperature;BME280_humidity;BME280_pressure;Samples;Min_cycle;Max_cycle;Signal;HPM_P1;HPM_P2
2024/03/16 00:02:10;;;;;;;7.73;7.63;;;;;;;;;;4958085;28;20490;-72
2024/03/16 00:04:38;;;;;;;7.67;7.57;;;;;;;;;;4956816;28;20484;-71
2024/03/16 00:07:05;;;;;;;7.70;7.60;;;;;;;;;;4960609;28;20476;-71
2024/03/16 00:09:32;;;;;;;7.27;7.17;;;;;;;;;;4970225;28;20467;-71
2024/03/16 00:11:59;;;;;;;8.23;8.13;;;;;;;;;;4965407;28;20464;-72
2024/03/16 00:14:27;;;;;;;7.97;7.87;;;;;;;;;;4963611;28;20778;-72
2024/03/16 00:16:54;;;;;;;8.03;7.93;;;;;;;;;;4959974;28;20899;-71
2024/03/16 00:19:22;;;;;;;8.30;8.20;;;;;;;;;;4964569;28;20499;-71
2024/03/16 00:21:48;;;;;;;8.40;8.30;;;;;;;;;;4966871;28;20464;-72
2024/03/16 00:24:15;;;;;;;8.10;8.00;;;;;;;;;;4964384;28;20464;-72
2024/03/16 00:26:43;;;;;;;8.07;7.97;;;;;;;;;;4968084;28;20558;-71
2024/03/16 00:29:11;;;;;;;8.83;8.63;;;;;;;;;;4966905;28;20503;-70
2024/03/16 00:31:38;;;;;;;7.90;7.80;;;;;;;;;;4958711;28;20478;-71
2024/03/16 00:34:06;;;;;;;8.20;8.10;;;;;;;;;;4967826;28;20464;-70
2024/03/16 00:36:33;;;;;;;8.40;8.30;;;;;;;;;;4963344;28;20556;-69
2024/03/16 00:39:00;;;;;;;8.00;7.90;;;;;;;;;;4978618;28;20467;-70
2024/03/16 00:41:27;;;;;;;8.30;8.20;;;;;;;;;;4972151;28;20498;-72
2024/03/16 00:43:55;;;;;;;7.60;7.50;;;;;;;;;;4966609;28;20557;-71
2024/03/16 00:46:22;;;;;;;8.40;8.30;;;;;;;;;;4967650;28;20509;-71
2024/03/16 00:48:50;;;;;;;7.43;7.33;;;;;;;;;;4990715;28;20466;-71
2024/03/16 00:51:18;;;;;;;7.80;7.70;;;;;;;;;;4964876;28;20470;-71
2024/03/16 00:53:46;;;;;;;8.07;7.97;;;;;;;;;;4972156;28;20477;-70
2024/03/16 00:56:13;;;;;;;8.17;8.07;;;;;;;;;;4971594;28;20475;-72
2024/03/16 00:58:41;;;;;;;8.40;8.30;;;;;;;;;;4947582;28;20822;-72
2024/03/16 01:01:09;;;;;;;8.10;8.00;;;;;;;;;;4933979;28;20755;-70
2024/03/16 01:03:36;;;;;;;8.40;8.30;;;;;;;;;;4932598;28;20468;-70
2024/03/16 01:06:04;;;;;;;8.47;8.37;;;;;;;;;;4931390;28;20567;-71
2024/03/16 01:08:32;;;;;;;7.80;7.70;;;;;;;;;;4932695;28;20597;-70
2024/03/16 01:10:59;;;;;;;8.23;8.13;;;;;;;;;;4933676;28;20459;-70
2024/03/16 01:13:27;;;;;;;7.77;7.67;;;;;;;;;;4949360;28;20477;-70
2024/03/16 01:15:54;;;;;;;7.73;7.63;;;;;;;;;;4933921;28;20473;-72
2024/03/16 01:18:21;;;;;;;7.33;7.23;;;;;;;;;;4933345;28;20465;-71
2024/03/16 01:20:49;;;;;;;7.77;7.67;;;;;;;;;;4932921;28;20859;-73
2024/03/16 01:23:17;;;;;;;7.77;7.67;;;;;;;;;;4949672;28;20552;-72
2024/03/16 01:25:44;;;;;;;7.70;7.60;;;;;;;;;;4930346;28;20520;-71
2024/03/16 01:28:12;;;;;;;7.33;7.23;;;;;;;;;;4930562;28;20494;-72
2024/03/16 01:30:39;;;;;;;7.20;7.10;;;;;;;;;;4949149;28;20468;-72
2024/03/16 01:33:07;;;;;;;6.90;6.80;;;;;;;;;;4932940;28;20498;-73
2024/03/16 01:35:33;;;;;;;6.93;6.83;;;;;;;;;;4932805;28;21618;-70
2024/03/16 01:38:00;;;;;;;6.97;6.87;;;;;;;;;;4931865;28;20469;-72
2024/03/16 01:40:28;;;;;;;7.27;7.17;;;;;;;;;;4931412;28;20612;-72
2024/03/16 01:42:55;;;;;;;6.87;6.77;;;;;;;;;;4931749;28;20835;-72
2024/03/16 01:45:22;;;;;;;6.70;6.60;;;;;;;;;;4931343;28;20626;-70
2024/03/16 01:47:52;;;;;;;6.50;6.40;;;;;;;;;;4931560;28;20980;-70
2024/03/16 01:50:20;;;;;;;6.60;6.50;;;;;;;;;;4931344;28;20490;-70
2024/03/16 01:52:47;;;;;;;6.60;6.50;;;;;;;;;;4931501;28;20464;-71
2024/03/16 01:55:15;;;;;;;6.10;6.00;;;;;;;;;;4931906;28;20464;-70
2024/03/16 01:57:42;;;;;;;6.53;6.43;;;;;;;;;;4936960;28;20460;-70
2024/03/16 02:00:11;;;;;;;6.37;6.27;;;;;;;;;;4971326;28;20584;-70
2024/03/16 02:02:38;;;;;;;6.40;6.30;;;;;;;;;;4962058;28;20501;-70
2024/03/16 02:05:05;;;;;;;6.00;5.90;;;;;;;;;;4964404;28;21042;-70
2024/03/16 02:07:33;;;;;;;5.57;5.47;;;;;;;;;;4963390;28;20480;-69
2024/03/16 02:10:00;;;;;;;5.20;5.10;;;;;;;;;;4974113;28;20475;-70
2024/03/16 02:12:27;;;;;;;5.30;5.20;;;;;;;;;;4969872;28;20503;-72
2024/03/16 02:14:54;;;;;;;4.80;4.80;;;;;;;;;;4965375;28;20479;-71
2024/03/16 02:17:22;;;;;;;5.63;5.53;;;;;;;;;;4973837;28;20474;-71
2024/03/16 02:19:49;;;;;;;4.20;4.20;;;;;;;;;;4960136;28;20528;-71
2024/03/16 02:22:18;;;;;;;3.93;3.93;;;;;;;;;;4966755;28;20471;-71
2024/03/16 02:24:45;;;;;;;4.40;4.40;;;;;;;;;;4970446;28;20533;-72
2024/03/16 02:27:12;;;;;;;4.40;4.40;;;;;;;;;;4970329;28;20469;-70
2024/03/16 02:29:40;;;;;;;4.50;4.50;;;;;;;;;;4964197;28;20567;-71
2024/03/16 02:32:07;;;;;;;4.03;4.03;;;;;;;;;;4969900;28;21273;-71
2024/03/16 02:34:35;;;;;;;3.90;3.90;;;;;;;;;;4970139;28;20535;-71
2024/03/16 02:37:03;;;;;;;4.30;4.30;;;;;;;;;;4963486;28;20547;-71
2024/03/16 02:39:31;;;;;;;4.50;4.50;;;;;;;;;;4979396;28;20485;-71
2024/03/16 02:41:58;;;;;;;4.80;4.80;;;;;;;;;;4965878;28;20856;-71
2024/03/16 02:44:26;;;;;;;4.53;4.53;;;;;;;;;;4965804;28;20480;-71
2024/03/16 02:46:53;;;;;;;4.43;4.43;;;;;;;;;;4962295;28;20993;-71
2024/03/16 02:49:21;;;;;;;3.90;3.90;;;;;;;;;;4964148;28;20983;-72
2024/03/16 02:51:48;;;;;;;3.80;3.80;;;;;;;;;;4967020;28;21002;-71
2024/03/16 02:54:16;;;;;;;4.37;4.37;;;;;;;;;;4970130;28;20468;-71
2024/03/16 02:56:44;;;;;;;4.10;4.10;;;;;;;;;;4966475;28;20478;-72
2024/03/16 02:59:11;;;;;;;4.80;4.80;;;;;;;;;;4966423;28;20477;-70
2024/03/16 03:01:39;;;;;;;4.60;4.60;;;;;;;;;;4968102;28;20505;-71
2024/03/16 03:04:07;;;;;;;4.40;4.40;;;;;;;;;;4973267;28;20551;-71
2024/03/16 03:06:34;;;;;;;4.30;4.30;;;;;;;;;;4973595;28;20965;-72
2024/03/16 03:09:03;;;;;;;5.03;5.03;;;;;;;;;;4972219;28;20453;-70
2024/03/16 03:11:30;;;;;;;4.77;4.77;;;;;;;;;;4970025;28;20512;-70
2024/03/16 03:13:58;;;;;;;4.50;4.50;;;;;;;;;;4964802;28;20577;-72
2024/03/16 03:16:26;;;;;;;4.17;4.17;;;;;;;;;;4964551;28;20478;-71
2024/03/16 03:18:53;;;;;;;4.73;4.73;;;;;;;;;;4970978;28;20927;-71
2024/03/16 03:21:20;;;;;;;4.77;4.77;;;;;;;;;;4968765;28;21065;-70
2024/03/16 03:23:48;;;;;;;4.23;4.23;;;;;;;;;;4964013;28;20966;-70
2024/03/16 03:26:15;;;;;;;4.50;4.50;;;;;;;;;;4973544;28;20471;-70
2024/03/16 03:28:43;;;;;;;4.37;4.37;;;;;;;;;;4970373;28;20477;-71
2024/03/16 03:31:10;;;;;;;4.90;4.90;;;;;;;;;;4965216;28;20469;-70
2024/03/16 03:33:38;;;;;;;4.63;4.63;;;;;;;;;;4960740;28;20888;-71
2024/03/16 03:36:05;;;;;;;4.70;4.70;;;;;;;;;;4984744;28;20550;-71
2024/03/16 03:38:31;;;;;;;5.00;5.00;;;;;;;;;;4964898;28;20501;-71
2024/03/16 03:40:59;;;;;;;5.40;5.30;;;;;;;;;;4968220;28;20843;-70
2024/03/16 03:43:26;;;;;;;4.87;4.87;;;;;;;;;;4959692;28;21011;-69
2024/03/16 03:45:54;;;;;;;5.27;5.17;;;;;;;;;;4973496;28;20457;-70
2024/03/16 03:48:41;;;;;;;5.67;5.57;;;;;;;;;;4971100;28;20457;-71
2024/03/16 03:51:08;;;;;;;5.43;5.33;;;;;;;;;;4957731;28;20620;-71
2024/03/16 03:53:35;;;;;;;5.37;5.27;;;;;;;;;;4960383;28;20964;-71
2024/03/16 03:56:03;;;;;;;5.10;5.07;;;;;;;;;;4975438;28;20971;-70
2024/03/16 03:58:30;;;;;;;4.77;4.77;;;;;;;;;;4969884;28;20489;-70
2024/03/16 04:00:57;;;;;;;6.03;5.93;;;;;;;;;;4961045;28;20501;-70
2024/03/16 04:03:25;;;;;;;5.67;5.57;;;;;;;;;;4965611;28;20469;-70
2024/03/16 04:05:53;;;;;;;5.97;5.87;;;;;;;;;;4959724;28;20461;-70
2024/03/16 04:08:21;;;;;;;5.57;5.47;;;;;;;;;;4964456;28;20472;-70
2024/03/16 04:10:48;;;;;;;6.03;5.93;;;;;;;;;;4968410;28;20463;-70
2024/03/16 04:13:15;;;;;;;6.23;6.13;;;;;;;;;;4963308;28;20484;-69
2024/03/16 04:15:42;;;;;;;6.00;5.90;;;;;;;;;;4972146;28;20562;-70
2024/03/16 04:18:10;;;;;;;6.80;6.70;;;;;;;;;;4963917;28;20506;-69
2024/03/16 04:20:38;;;;;;;6.47;6.37;;;;;;;;;;4976524;28;20488;-69
2024/03/16 04:23:08;;;;;;;8.07;7.97;;;;;;;;;;4961478;28;20477;-71
2024/03/16 04:25:36;;;;;;;10.17;9.97;;;;;;;;;;4979788;28;20464;-69
2024/03/16 04:28:03;;;;;;;11.17;10.97;;;;;;;;;;4968079;28;20727;-69
2024/03/16 04:30:30;;;;;;;12.27;11.97;;;;;;;;;;4964397;28;20507;-69
2024/03/16 04:32:58;;;;;;;13.03;12.73;;;;;;;;;;4953089;28;20468;-69
2024/03/16 04:35:25;;;;;;;13.80;13.40;;;;;;;;;;4967584;28;20987;-71
2024/03/16 04:37:53;;;;;;;14.27;13.87;;;;;;;;;;4967954;28;20476;-71
2024/03/16 04:40:20;;;;;;;14.63;14.23;;;;;;;;;;4967989;28;20907;-70
2024/03/16 04:42:48;;;;;;;14.67;14.27;;;;;;;;;;4963655;28;20462;-70
2024/03/16 04:45:15;;;;;;;14.83;14.43;;;;;;;;;;4968493;28;20464;-69
2024/03/16 04:47:42;;;;;;;15.03;14.63;;;;;;;;;;4956734;28;20477;-70
2024/03/16 04:50:11;;;;;;;14.30;13.90;;;;;;;;;;4964013;28;20472;-72
2024/03/16 04:52:38;;;;;;;14.13;13.73;;;;;;;;;;4966049;28;20514;-71
2024/03/16 04:55:08;;;;;;;13.93;13.53;;;;;;;;;;4965289;28;20472;-70
2024/03/16 04:57:36;;;;;;;15.50;15.00;;;;;;;;;;4968031;28;20562;-69
2024/03/16 05:00:04;;;;;;;14.43;14.03;;;;;;;;;;4976812;28;20511;-70
2024/03/16 05:02:31;;;;;;;14.13;13.73;;;;;;;;;;4960802;28;20499;-69
2024/03/16 05:04:58;;;;;;;14.67;14.27;;;;;;;;;;4957316;28;21036;-72
2024/03/16 05:07:26;;;;;;;14.60;14.20;;;;;;;;;;4955544;28;20486;-71
2024/03/16 05:09:53;;;;;;;14.77;14.37;;;;;;;;;;4963491;28;20480;-71
2024/03/16 05:12:21;;;;;;;14.47;14.07;;;;;;;;;;4961734;28;20477;-71
2024/03/16 05:14:48;;;;;;;15.17;14.77;;;;;;;;;;4957215;28;20480;-70
2024/03/16 05:17:16;;;;;;;14.37;13.97;;;;;;;;;;4963554;28;20461;-70
2024/03/16 05:19:43;;;;;;;13.90;13.50;;;;;;;;;;4968842;28;20934;-72
2024/03/16 05:22:10;;;;;;;15.50;15.00;;;;;;;;;;4960004;28;20584;-70
2024/03/16 05:24:38;;;;;;;15.97;15.47;;;;;;;;;;4972485;28;20756;-71
2024/03/16 05:27:06;;;;;;;14.93;14.53;;;;;;;;;;4963386;28;20604;-70
2024/03/16 05:29:33;;;;;;;16.10;15.60;;;;;;;;;;4962012;28;20550;-70
2024/03/16 05:32:03;;;;;;;15.90;15.40;;;;;;;;;;4960266;28;20466;-71
2024/03/16 05:34:30;;;;;;;16.60;16.10;;;;;;;;;;4967836;28;20548;-70
2024/03/16 05:36:58;;;;;;;15.50;15.00;;;;;;;;;;4966174;28;20470;-71
2024/03/16 05:39:25;;;;;;;15.60;15.10;;;;;;;;;;4963725;28;20465;-71
2024/03/16 05:41:52;;;;;;;15.03;14.57;;;;;;;;;;4967922;28;20496;-74
2024/03/16 05:44:19;;;;;;;14.60;14.10;;;;;;;;;;4963764;28;20475;-70
2024/03/16 05:46:46;;;;;;;14.57;14.07;;;;;;;;;;4964256;28;20478;-71
2024/03/16 05:49:14;;;;;;;13.77;13.30;;;;;;;;;;4969920;28;20494;-70
2024/03/16 05:51:43;;;;;;;14.07;13.57;;;;;;;;;;4963438;28;20566;-70
2024/03/16 05:54:10;;;;;;;14.00;13.50;;;;;;;;;;4969511;28;20471;-70
2024/03/16 05:56:39;;;;;;;14.20;13.73;;;;;;;;;;4966000;28;20474;-70
2024/03/16 05:59:08;;;;;;;14.37;13.87;;;;;;;;;;4960041;28;21046;-70
2024/03/16 06:01:36;;;;;;;14.73;14.23;;;;;;;;;;4958588;28;20651;-70
2024/03/16 06:04:03;;;;;;;15.10;14.60;;;;;;;;;;4954944;28;20506;-70
2024/03/16 06:06:32;;;;;;;14.53;14.13;;;;;;;;;;4968778;28;20815;-68
2024/03/16 06:08:59;;;;;;;13.93;13.53;;;;;;;;;;4974188;28;20464;-73
2024/03/16 06:11:27;;;;;;;13.70;13.30;;;;;;;;;;4971675;28;20483;-72
2024/03/16 06:13:54;;;;;;;14.77;14.37;;;;;;;;;;4972121;28;20841;-71
2024/03/16 06:16:22;;;;;;;15.60;15.10;;;;;;;;;;4965617;28;20508;-70
2024/03/16 06:18:49;;;;;;;15.50;15.00;;;;;;;;;;4977770;28;20546;-70
2024/03/16 06:21:16;;;;;;;15.37;14.87;;;;;;;;;;4964744;28;20497;-69
2024/03/16 06:23:43;;;;;;;15.20;14.80;;;;;;;;;;4968568;28;20879;-70
2024/03/16 06:26:16;;;;;;;14.00;13.60;;;;;;;;;;4967976;28;21142;-70
2024/03/16 06:28:47;;;;;;;13.80;13.40;;;;;;;;;;4966165;28;20462;-73
2024/03/16 06:31:14;;;;;;;13.67;13.27;;;;;;;;;;4975111;28;20471;-71
2024/03/16 06:33:45;;;;;;;12.37;12.07;;;;;;;;;;4958153;28;20752;-70
2024/03/16 06:36:13;;;;;;;12.43;12.13;;;;;;;;;;4963161;28;20566;-71
2024/03/16 06:38:42;;;;;;;12.27;11.97;;;;;;;;;;4964371;28;20465;-72
2024/03/16 06:41:09;;;;;;;12.20;11.90;;;;;;;;;;4965092;28;20510;-72
2024/03/16 06:43:36;;;;;;;12.63;12.33;;;;;;;;;;4960954;28;20478;-70
2024/03/16 06:46:05;;;;;;;12.60;12.30;;;;;;;;;;4981936;28;20467;-70
2024/03/16 06:48:32;;;;;;;13.67;13.27;;;;;;;;;;4965235;28;20840;-71
2024/03/16 06:50:59;;;;;;;13.17;12.87;;;;;;;;;;4961370;28;20484;-70
2024/03/16 06:53:27;;;;;;;14.00;13.60;;;;;;;;;;4960452;28;20476;-71
2024/03/16 06:55:55;;;;;;;13.80;13.40;;;;;;;;;;4962081;28;20488;-72
2024/03/16 06:58:22;;;;;;;13.13;12.83;;;;;;;;;;4961933;28;20805;-73
2024/03/16 07:00:49;;;;;;;13.17;12.87;;;;;;;;;;4977991;28;20487;-72
2024/03/16 07:03:16;;;;;;;12.90;12.60;;;;;;;;;;4956214;28;20505;-72
2024/03/16 07:05:44;;;;;;;12.80;12.50;;;;;;;;;;4963210;28;20475;-72
2024/03/16 07:08:15;;;;;;;12.83;12.53;;;;;;;;;;4962117;28;21016;-72
2024/03/16 07:10:43;;;;;;;12.73;12.43;;;;;;;;;;4966736;28;20469;-73
2024/03/16 07:13:10;;;;;;;12.17;11.87;;;;;;;;;;4965748;28;20469;-72
2024/03/16 07:15:37;;;;;;;12.80;12.50;;;;;;;;;;4964379;28;20927;-71
2024/03/16 07:18:04;;;;;;;12.10;11.80;;;;;;;;;;4957495;28;21059;-72
2024/03/16 07:20:32;;;;;;;11.77;11.47;;;;;;;;;;4963780;28;20466;-71
2024/03/16 07:22:59;;;;;;;13.13;12.77;;;;;;;;;;4957170;28;20504;-72
2024/03/16 07:25:27;;;;;;;12.23;11.93;;;;;;;;;;4961150;28;21248;-72
2024/03/16 07:27:54;;;;;;;12.50;12.20;;;;;;;;;;4960687;28;20555;-71
2024/03/16 07:30:21;;;;;;;13.60;13.20;;;;;;;;;;4971019;28;20466;-72
2024/03/16 07:32:49;;;;;;;13.47;13.07;;;;;;;;;;4965314;28;20938;-72
2024/03/16 07:35:17;;;;;;;13.70;13.30;;;;;;;;;;4957733;28;20994;-72
2024/03/16 07:37:44;;;;;;;13.67;13.27;;;;;;;;;;4954909;28;20975;-73
2024/03/16 07:40:13;;;;;;;13.20;12.80;;;;;;;;;;4965171;28;20471;-72
2024/03/16 07:42:41;;;;;;;13.10;12.70;;;;;;;;;;4957499;28;20572;-73
2024/03/16 07:45:09;;;;;;;13.20;12.80;;;;;;;;;;4960895;28;20461;-72
2024/03/16 07:47:36;;;;;;;13.50;13.10;;;;;;;;;;4958926;28;20475;-70
2024/03/16 07:50:05;;;;;;;13.77;13.37;;;;;;;;;;4961139;28;20532;-71
2024/03/16 07:52:33;;;;;;;13.57;13.17;;;;;;;;;;4951642;28;20475;-71
2024/03/16 07:55:00;;;;;;;12.50;12.13;;;;;;;;;;4965065;28;20511;-72
2024/03/16 07:57:28;;;;;;;12.33;12.03;;;;;;;;;;4956252;28;20543;-72
2024/03/16 07:59:56;;;;;;;13.50;13.10;;;;;;;;;;4958332;28;21291;-73
2024/03/16 08:02:23;;;;;;;12.50;12.13;;;;;;;;;;4957092;28;20514;-70
2024/03/16 08:04:50;;;;;;;13.00;12.60;;;;;;;;;;4961512;28;20811;-71
2024/03/16 08:07:17;;;;;;;13.60;13.20;;;;;;;;;;4953318;28;20459;-70
2024/03/16 08:09:45;;;;;;;13.53;13.13;;;;;;;;;;4950474;28;20472;-73
2024/03/16 08:12:12;;;;;;;14.80;14.20;;;;;;;;;;4951384;28;20964;-70
2024/03/16 08:14:39;;;;;;;14.07;13.57;;;;;;;;;;4948293;28;20859;-73
2024/03/16 08:17:07;;;;;;;13.63;13.13;;;;;;;;;;4956515;28;20596;-70
2024/03/16 08:19:36;;;;;;;13.60;13.10;;;;;;;;;;4957679;28;20470;-71
2024/03/16 08:22:04;;;;;;;13.77;13.27;;;;;;;;;;4952773;28;20853;-72
2024/03/16 08:24:32;;;;;;;13.53;13.03;;;;;;;;;;4950472;28;20524;-72
2024/03/16 08:26:59;;;;;;;13.50;13.00;;;;;;;;;;4949054;28;20502;-70
2024/03/16 08:29:26;;;;;;;13.57;13.07;;;;;;;;;;4951748;28;20479;-71
2024/03/16 08:31:55;;;;;;;14.03;13.53;;;;;;;;;;4954574;28;20471;-71
2024/03/16 08:34:22;;;;;;;13.73;13.23;;;;;;;;;;4955003;28;20462;-70
2024/03/16 08:36:50;;;;;;;13.73;13.23;;;;;;;;;;4953990;28;20841;-71
2024/03/16 08:39:17;;;;;;;13.40;12.90;;;;;;;;;;4950778;28;20478;-71
2024/03/16 08:41:44;;;;;;;13.07;12.67;;;;;;;;;;4948112;28;20499;-71
2024/03/16 08:44:12;;;;;;;12.97;12.57;;;;;;;;;;4954330;28;20468;-72
2024/03/16 08:46:39;;;;;;;12.93;12.53;;;;;;;;;;4952914;28;20477;-71
2024/03/16 08:49:07;;;;;;;13.43;12.93;;;;;;;;;;4953571;28;21118;-70
2024/03/16 08:51:34;;;;;;;12.60;12.20;;;;;;;;;;4949575;28;20476;-71
2024/03/16 08:54:02;;;;;;;12.17;11.83;;;;;;;;;;4952439;28;20476;-71
2024/03/16 08:56:30;;;;;;;12.00;11.63;;;;;;;;;;4955032;28;20475;-70
2024/03/16 08:58:58;;;;;;;12.30;11.90;;;;;;;;;;4946923;28;20495;-70
2024/03/16 09:01:26;;;;;;;12.50;12.10;;;;;;;;;;4955237;28;21270;-70
2024/03/16 09:03:53;;;;;;;12.73;12.33;;;;;;;;;;4956776;28;20497;-70
2024/03/16 09:06:20;;;;;;;12.47;12.07;;;;;;;;;;4951595;28;20465;-70
2024/03/16 09:08:47;;;;;;;13.30;12.90;;;;;;;;;;4955956;28;20480;-71
2024/03/16 09:11:14;;;;;;;12.50;12.10;;;;;;;;;;4958319;28;20826;-70
2024/03/16 09:13:41;;;;;;;12.30;11.90;;;;;;;;;;4956994;28;20863;-71
2024/03/16 09:16:09;;;;;;;12.40;12.00;;;;;;;;;;4953567;28;20476;-70
2024/03/16 09:18:36;;;;;;;12.70;12.30;;;;;;;;;;4954502;28;20475;-70
2024/03/16 09:21:05;;;;;;;11.97;11.67;;;;;;;;;;4956609;28;21274;-69
2024/03/16 09:23:32;;;;;;;10.63;10.33;;;;;;;;;;4956990;28;20496;-70
2024/03/16 09:26:01;;;;;;;10.23;10.03;;;;;;;;;;4953074;28;20542;-70
2024/03/16 09:28:28;;;;;;;10.10;9.90;;;;;;;;;;4956953;28;21173;-71
2024/03/16 09:30:55;;;;;;;8.63;8.53;;;;;;;;;;4954797;28;20953;-71
2024/03/16 09:33:22;;;;;;;8.00;7.90;;;;;;;;;;4961250;28;20465;-71
2024/03/16 09:35:50;;;;;;;7.50;7.40;;;;;;;;;;4954713;28;20629;-70
2024/03/16 09:38:17;;;;;;;7.30;7.20;;;;;;;;;;4957883;28;20483;-71
2024/03/16 09:40:44;;;;;;;7.60;7.50;;;;;;;;;;4957151;28;20464;-70
2024/03/16 09:43:11;;;;;;;8.23;8.13;;;;;;;;;;4956038;28;20529;-72
2024/03/16 09:45:38;;;;;;;7.77;7.67;;;;;;;;;;4952480;28;20482;-72
2024/03/16 09:48:06;;;;;;;8.40;8.30;;;;;;;;;;4954367;28;20881;-71
2024/03/16 09:50:33;;;;;;;9.40;9.20;;;;;;;;;;4956758;28;20567;-71
2024/03/16 09:53:01;;;;;;;9.80;9.60;;;;;;;;;;4952393;28;20474;-71
2024/03/16 09:55:28;;;;;;;10.20;10.00;;;;;;;;;;4953299;28;20480;-72
2024/03/16 09:57:55;;;;;;;11.03;10.73;;;;;;;;;;4954964;28;20544;-72
2024/03/16 10:00:25;;;;;;;11.67;11.37;;;;;;;;;;4954560;28;20496;-71
2024/03/16 10:02:52;;;;;;;11.70;11.40;;;;;;;;;;4957664;28;20619;-72
2024/03/16 10:05:20;;;;;;;12.53;12.13;;;;;;;;;;4955851;28;20476;-72
2024/03/16 10:07:47;;;;;;;13.20;12.80;;;;;;;;;;4958086;28;20469;-72
2024/03/16 10:10:17;;;;;;;13.33;12.93;;;;;;;;;;4953359;28;20693;-72
2024/03/16 10:12:44;;;;;;;13.10;12.70;;;;;;;;;;4952573;28;20473;-73
2024/03/16 10:15:16;;;;;;;13.30;12.90;;;;;;;;;;4955533;28;20471;-72
2024/03/16 10:17:43;;;;;;;13.40;13.00;;;;;;;;;;4955326;28;20475;-72
2024/03/16 10:20:15;;;;;;;13.13;12.73;;;;;;;;;;4954280;28;20477;-71
2024/03/16 10:22:44;;;;;;;13.80;13.30;;;;;;;;;;4950554;28;20580;-72
2024/03/16 10:25:11;;;;;;;14.50;14.00;;;;;;;;;;4953172;28;20981;-72
2024/03/16 10:27:39;;;;;;;13.80;13.40;;;;;;;;;;4953980;28;20893;-71
2024/03/16 10:30:08;;;;;;;14.60;14.10;;;;;;;;;;4954721;28;20474;-73
2024/03/16 10:32:37;;;;;;;14.30;13.80;;;;;;;;;;4954359;28;20916;-71
2024/03/16 10:35:07;;;;;;;14.27;13.77;;;;;;;;;;4959339;28;20500;-72
2024/03/16 10:37:35;;;;;;;14.40;13.90;;;;;;;;;;4951713;28;20516;-72
2024/03/16 10:40:13;;;;;;;14.30;13.80;;;;;;;;;;4951063;28;20574;-71
2024/03/16 10:42:41;;;;;;;14.40;13.90;;;;;;;;;;4956110;28;21118;-72
2024/03/16 10:45:09;;;;;;;14.53;14.03;;;;;;;;;;4955989;28;20499;-71
2024/03/16 10:47:36;;;;;;;14.80;14.30;;;;;;;;;;4952706;28;20468;-71
2024/03/16 10:50:09;;;;;;;14.27;13.77;;;;;;;;;;4957065;28;20457;-72
2024/03/16 10:52:36;;;;;;;14.47;13.97;;;;;;;;;;4951224;28;20503;-72
2024/03/16 10:55:07;;;;;;;14.43;13.93;;;;;;;;;;4952737;28;20521;-72
2024/03/16 10:57:36;;;;;;;14.63;14.13;;;;;;;;;;4949872;28;20545;-71
2024/03/16 11:00:12;;;;;;;14.73;14.23;;;;;;;;;;4955094;28;21000;-73
2024/03/16 11:02:40;;;;;;;14.50;14.00;;;;;;;;;;4953128;28;21040;-70
2024/03/16 11:05:14;;;;;;;14.70;14.20;;;;;;;;;;4956115;28;20471;-72
2024/03/16 11:07:41;;;;;;;14.73;14.23;;;;;;;;;;4953421;28;20473;-71
2024/03/16 11:10:10;;;;;;;15.13;14.63;;;;;;;;;;4954696;28;20468;-71
2024/03/16 11:12:37;;;;;;;15.00;14.50;;;;;;;;;;4955942;28;20862;-72
2024/03/16 11:15:23;;;;;;;14.80;14.30;;;;;;;;;;4951980;28;20473;-71
2024/03/16 11:17:50;;;;;;;14.93;14.43;;;;;;;;;;4958112;28;20468;-70
2024/03/16 11:20:37;;;;;;;14.90;14.40;;;;;;;;;;4956555;28;20459;-72
2024/03/16 11:23:05;;;;;;;14.40;13.90;;;;;;;;;;4952547;28;21084;-72
2024/03/16 11:25:32;;;;;;;14.70;14.20;;;;;;;;;;4952794;28;20702;-71
2024/03/16 11:27:59;;;;;;;14.00;13.50;;;;;;;;;;4949417;28;20469;-71
2024/03/16 11:30:27;;;;;;;14.47;13.97;;;;;;;;;;4952646;28;20489;-71
2024/03/16 11:32:56;;;;;;;14.67;14.17;;;;;;;;;;4954564;28;20898;-71
2024/03/16 11:35:23;;;;;;;14.57;14.07;;;;;;;;;;4954937;28;20541;-72
2024/03/16 11:37:50;;;;;;;14.20;13.70;;;;;;;;;;4948215;28;20982;-71
2024/03/16 11:40:18;;;;;;;13.97;13.53;;;;;;;;;;4953747;28;20475;-73
2024/03/16 11:42:44;;;;;;;14.43;13.93;;;;;;;;;;4950615;28;20501;-72
2024/03/16 11:45:11;;;;;;;14.90;14.40;;;;;;;;;;4957680;28;20463;-71
2024/03/16 11:47:39;;;;;;;14.40;13.90;;;;;;;;;;4955159;28;20563;-72
2024/03/16 11:50:05;;;;;;;14.43;13.93;;;;;;;;;;4953759;28;20483;-72
2024/03/16 11:52:33;;;;;;;14.53;14.03;;;;;;;;;;4952304;28;20508;-72
2024/03/16 11:55:01;;;;;;;14.57;14.07;;;;;;;;;;4950322;28;20561;-72
2024/03/16 11:57:28;;;;;;;14.23;13.73;;;;;;;;;;4951197;28;21216;-73
2024/03/16 11:59:54;;;;;;;13.73;13.33;;;;;;;;;;4954297;28;20509;-73
2024/03/16 12:02:21;;;;;;;14.40;13.90;;;;;;;;;;4954790;28;20490;-73
2024/03/16 12:04:47;;;;;;;14.33;13.83;;;;;;;;;;4950791;28;21057;-73
2024/03/16 12:07:15;;;;;;;14.27;13.77;;;;;;;;;;4953703;28;20472;-70
2024/03/16 12:09:41;;;;;;;13.20;12.80;;;;;;;;;;4950619;28;20484;-73
2024/03/16 12:12:09;;;;;;;14.07;13.63;;;;;;;;;;4953840;28;20932;-72
2024/03/16 12:14:35;;;;;;;14.43;13.93;;;;;;;;;;4950417;28;20809;-71
2024/03/16 12:17:04;;;;;;;13.70;13.30;;;;;;;;;;4969798;28;20539;-72
2024/03/16 12:19:31;;;;;;;14.33;13.83;;;;;;;;;;4957503;28;20985;-72
2024/03/16 12:21:59;;;;;;;13.90;13.50;;;;;;;;;;4953279;28;20536;-71
2024/03/16 12:24:26;;;;;;;13.90;13.50;;;;;;;;;;4950168;28;21052;-73
2024/03/16 12:26:53;;;;;;;13.83;13.43;;;;;;;;;;4951880;28;20516;-73
2024/03/16 12:29:19;;;;;;;13.37;12.97;;;;;;;;;;4955094;28;20568;-72
2024/03/16 12:31:46;;;;;;;13.97;13.57;;;;;;;;;;4954242;28;20617;-72
2024/03/16 12:34:13;;;;;;;13.90;13.50;;;;;;;;;;4954053;28;20470;-71
2024/03/16 12:36:40;;;;;;;13.07;12.67;;;;;;;;;;4955501;28;20810;-71
2024/03/16 12:39:10;;;;;;;13.70;13.30;;;;;;;;;;4959916;28;20515;-71
2024/03/16 12:41:37;;;;;;;13.80;13.40;;;;;;;;;;4955224;28;20454;-73
2024/03/16 12:44:04;;;;;;;13.87;13.47;;;;;;;;;;4952878;28;20597;-73
2024/03/16 12:46:30;;;;;;;13.57;13.17;;;;;;;;;;4958498;28;20473;-72
2024/03/16 12:48:58;;;;;;;13.93;13.50;;;;;;;;;;4955367;28;20470;-73
2024/03/16 12:51:24;;;;;;;13.70;13.30;;;;;;;;;;4953732;28;20469;-73
2024/03/16 12:53:51;;;;;;;13.43;13.03;;;;;;;;;;4954228;28;20474;-73
2024/03/16 12:56:18;;;;;;;13.37;12.97;;;;;;;;;;4955593;28;20579;-72
2024/03/16 12:58:45;;;;;;;14.00;13.50;;;;;;;;;;4957125;28;20485;-73
2024/03/16 13:01:14;;;;;;;13.90;13.43;;;;;;;;;;4958002;28;20878;-73
2024/03/16 13:03:42;;;;;;;14.00;13.50;;;;;;;;;;4935906;28;20491;-73
2024/03/16 13:06:08;;;;;;;14.07;13.57;;;;;;;;;;4956772;28;20540;-72
2024/03/16 13:08:36;;;;;;;13.67;13.27;;;;;;;;;;4951738;28;20469;-74
2024/03/16 13:11:02;;;;;;;13.80;13.40;;;;;;;;;;4958228;28;20564;-72
2024/03/16 13:13:29;;;;;;;13.47;13.07;;;;;;;;;;4954457;28;20480;-72
2024/03/16 13:15:56;;;;;;;13.20;12.80;;;;;;;;;;4953664;28;20490;-73
2024/03/16 13:18:24;;;;;;;13.53;13.13;;;;;;;;;;4952579;28;20456;-72
2024/03/16 13:20:50;;;;;;;14.00;13.50;;;;;;;;;;4958497;28;20829;-74
2024/03/16 13:23:18;;;;;;;13.37;12.97;;;;;;;;;;4953200;28;20546;-72
2024/03/16 13:25:44;;;;;;;13.10;12.70;;;;;;;;;;4958427;28;20486;-72
2024/03/16 13:28:13;;;;;;;13.40;13.00;;;;;;;;;;4956141;28;20969;-73
2024/03/16 13:30:39;;;;;;;13.57;13.17;;;;;;;;;;4955874;28;21263;-74
2024/03/16 13:33:08;;;;;;;12.90;12.50;;;;;;;;;;4952633;28;20615;-72
2024/03/16 13:35:34;;;;;;;13.07;12.67;;;;;;;;;;4958405;28;20922;-73
2024/03/16 13:38:01;;;;;;;13.47;13.07;;;;;;;;;;4954092;28;20588;-72
2024/03/16 13:40:29;;;;;;;13.03;12.63;;;;;;;;;;4957550;28;20494;-72
2024/03/16 13:42:56;;;;;;;13.20;12.80;;;;;;;;;;4953927;28;20564;-74
2024/03/16 13:45:23;;;;;;;13.83;13.40;;;;;;;;;;4955374;28;21032;-72
2024/03/16 13:47:49;;;;;;;14.00;13.50;;;;;;;;;;4956889;28;20478;-73
2024/03/16 13:50:16;;;;;;;13.93;13.43;;;;;;;;;;4957244;28;20686;-73
2024/03/16 13:52:42;;;;;;;14.17;13.67;;;;;;;;;;4952484;28;20464;-72
2024/03/16 13:55:11;;;;;;;13.80;13.40;;;;;;;;;;4957692;28;20470;-72
2024/03/16 13:57:37;;;;;;;13.87;13.43;;;;;;;;;;4957302;28;20712;-72
2024/03/16 14:00:06;;;;;;;13.67;13.27;;;;;;;;;;4956956;28;20525;-73
2024/03/16 14:02:32;;;;;;;13.70;13.30;;;;;;;;;;4951852;28;20505;-73
2024/03/16 14:04:59;;;;;;;13.73;13.33;;;;;;;;;;4953367;28;20585;-72
2024/03/16 14:07:26;;;;;;;13.80;13.40;;;;;;;;;;4957375;28;20563;-73
2024/03/16 14:09:53;;;;;;;13.60;13.20;;;;;;;;;;4956288;28;20463;-72
2024/03/16 14:12:19;;;;;;;14.13;13.67;;;;;;;;;;4957457;28;20497;-74
2024/03/16 14:14:47;;;;;;;13.63;13.23;;;;;;;;;;4953294;28;20470;-73
2024/03/16 14:17:13;;;;;;;13.70;13.30;;;;;;;;;;4953541;28;20478;-72
2024/03/16 14:19:41;;;;;;;14.00;13.50;;;;;;;;;;4956376;28;20581;-73
2024/03/16 14:22:07;;;;;;;13.50;13.10;;;;;;;;;;4956723;28;20471;-74
2024/03/16 14:24:34;;;;;;;13.50;13.10;;;;;;;;;;4953582;28;20508;-72
2024/03/16 14:27:00;;;;;;;13.87;13.40;;;;;;;;;;4952376;28;20467;-73
2024/03/16 14:29:28;;;;;;;13.77;13.30;;;;;;;;;;4950938;28;20822;-72